createdAt,value
2022-12-27T00:00:36.210Z,99079.81
2022-12-27T00:03:02.861Z,99088.41
2022-12-27T00:05:29.332Z,99082.13
2022-12-27T00:07:56.315Z,99091.31
2022-12-27T00:10:22.917Z,99085.75
2022-12-27T00:12:49.406Z,99090.75
2022-12-27T00:15:15.887Z,99090.69
2022-12-27T00:17:42.456Z,99093.47
2022-12-27T00:20:11.578Z,99093.56
2022-12-27T00:22:39.619Z,99094.31
2022-12-27T00:25:06.726Z,99094.78
2022-12-27T00:27:33.174Z,99090.50
2022-12-27T00:29:59.602Z,99098.69
2022-12-27T00:32:26.267Z,99102.47
2022-12-27T00:34:52.763Z,99098.25
2022-12-27T00:37:21.742Z,99100.06
2022-12-27T00:39:48.373Z,99098.50
2022-12-27T00:42:14.880Z,99101.13
2022-12-27T00:44:43.118Z,99106.38
2022-12-27T00:47:10.593Z,99100.34
2022-12-27T00:49:37.230Z,99104.81
2022-12-27T00:52:03.941Z,99104.88
2022-12-27T00:54:30.452Z,99106.44
2022-12-27T00:56:56.943Z,99109.59
2022-12-27T00:59:23.386Z,99109.31
2022-12-27T01:01:50.016Z,99108.34
2022-12-27T01:04:17.164Z,99104.88
2022-12-27T01:06:44.185Z,99107.25
2022-12-27T01:09:10.656Z,99117.22
2022-12-27T01:11:37.191Z,99115.41
2022-12-27T01:14:05.314Z,99113.81
2022-12-27T01:16:33.176Z,99115.44
2022-12-27T01:19:00.509Z,99123.75
2022-12-27T01:21:30.456Z,99118.25
2022-12-27T01:23:57.468Z,99121.97
2022-12-27T01:26:24.611Z,99123.84
2022-12-27T01:28:53.489Z,99124.69
2022-12-27T01:31:24.858Z,99115.44
2022-12-27T01:33:59.140Z,99119.31
2022-12-27T01:36:28.086Z,99116.66
2022-12-27T01:38:55.044Z,99124.28
2022-12-27T01:41:45.483Z,99129.25
2022-12-27T01:44:40.045Z,99130.00
2022-12-27T01:47:17.379Z,99131.38
2022-12-27T01:50:00.870Z,99134.00
2022-12-27T01:52:46.554Z,99133.78
2022-12-27T01:55:25.180Z,99138.66
2022-12-27T01:57:58.119Z,99141.03
2022-12-27T02:00:24.880Z,99143.59
2022-12-27T02:02:52.886Z,99140.09
2022-12-27T02:05:23.959Z,99142.66
2022-12-27T02:08:21.630Z,99155.63
2022-12-27T02:10:50.928Z,99151.88
2022-12-27T02:13:19.157Z,99151.06
2022-12-27T02:15:45.614Z,99157.16
2022-12-27T02:18:12.309Z,99154.81
2022-12-27T02:21:13.515Z,99147.03
2022-12-27T02:24:43.420Z,99151.28
2022-12-27T02:27:57.140Z,99152.31
2022-12-27T02:30:24.227Z,99153.84
2022-12-27T02:33:19.308Z,99160.03
2022-12-27T02:35:57.978Z,99160.09
2022-12-27T02:38:36.349Z,99160.03
2022-12-27T02:41:27.064Z,99161.47
2022-12-27T02:44:14.397Z,99167.38
2022-12-27T02:47:00.234Z,99162.97
2022-12-27T02:49:55.111Z,99163.63
2022-12-27T02:52:55.281Z,99164.00
2022-12-27T02:56:24.638Z,99164.06
2022-12-27T02:59:23.079Z,99159.06
2022-12-27T03:02:33.863Z,99156.28
2022-12-27T03:05:19.868Z,99163.22
2022-12-27T03:08:01.797Z,99161.31
2022-12-27T03:11:03.487Z,99166.53
2022-12-27T03:14:20.027Z,99171.66
2022-12-27T03:16:56.121Z,99176.66
2022-12-27T03:20:22.966Z,99180.19
2022-12-27T03:23:12.257Z,99184.28
2022-12-27T03:25:43.259Z,99187.38
2022-12-27T03:28:39.920Z,99186.38
2022-12-27T03:32:00.517Z,99190.66
2022-12-27T03:34:39.930Z,99183.97
2022-12-27T03:37:32.236Z,99190.94
2022-12-27T03:40:15.282Z,99189.09
2022-12-27T03:43:10.175Z,99181.09
2022-12-27T03:46:16.745Z,99180.94
2022-12-27T03:49:08.227Z,99187.22
2022-12-27T03:52:11.699Z,99172.50
2022-12-27T03:54:41.881Z,99186.91
2022-12-27T03:57:17.352Z,99184.31
2022-12-27T03:59:44.756Z,99183.47
2022-12-27T04:02:11.853Z,99182.50
2022-12-27T04:04:38.735Z,99186.50
2022-12-27T04:07:06.351Z,99181.28
2022-12-27T04:09:52.071Z,99183.00
2022-12-27T04:12:37.147Z,99185.44
2022-12-27T04:15:22.994Z,99182.53
2022-12-27T04:18:08.332Z,99191.25
2022-12-27T04:20:53.478Z,99183.59
2022-12-27T04:23:38.839Z,99182.81
2022-12-27T04:26:24.178Z,99181.91
2022-12-27T04:29:09.616Z,99178.47
2022-12-27T04:31:54.969Z,99188.13
2022-12-27T04:34:40.341Z,99188.09
2022-12-27T04:37:08.561Z,99189.84
2022-12-27T04:39:35.709Z,99187.25
2022-12-27T04:42:20.581Z,99192.47
2022-12-27T04:45:13.224Z,99184.97
2022-12-27T04:48:00.532Z,99190.09
2022-12-27T04:50:49.801Z,99192.69
2022-12-27T04:53:39.296Z,99188.31
2022-12-27T04:56:07.115Z,99188.41
2022-12-27T04:58:34.525Z,99193.16
2022-12-27T05:01:23.437Z,99181.75
2022-12-27T05:03:53.397Z,99186.16
2022-12-27T05:06:20.492Z,99189.47
2022-12-27T05:09:06.846Z,99193.75
2022-12-27T05:11:52.076Z,99194.88
2022-12-27T05:14:18.576Z,99193.75
2022-12-27T05:16:45.457Z,99192.88
2022-12-27T05:19:14.500Z,99209.91
2022-12-27T05:22:03.925Z,99209.53
2022-12-27T05:24:50.804Z,99210.31
2022-12-27T05:27:18.618Z,99209.63
2022-12-27T05:29:46.593Z,99210.22
2022-12-27T05:32:13.921Z,99211.78
2022-12-27T05:34:41.069Z,99223.44
2022-12-27T05:37:08.333Z,99209.78
2022-12-27T05:39:34.807Z,99215.81
2022-12-27T05:42:01.340Z,99219.03
2022-12-27T05:44:27.830Z,99215.13
2022-12-27T05:46:55.631Z,99204.56
2022-12-27T05:49:22.369Z,99216.63
2022-12-27T05:51:48.823Z,99215.63
2022-12-27T05:54:15.454Z,99221.06
2022-12-27T05:56:42.017Z,99222.88
2022-12-27T05:59:08.670Z,99223.72
2022-12-27T06:01:35.342Z,99228.66
2022-12-27T06:04:01.973Z,99233.06
2022-12-27T06:06:28.928Z,99231.47
2022-12-27T06:08:55.441Z,99232.25
2022-12-27T06:11:22.058Z,99240.03
2022-12-27T06:13:54.126Z,99233.97
2022-12-27T06:16:22.636Z,99239.03
2022-12-27T06:18:49.946Z,99242.34
2022-12-27T06:21:20.957Z,99244.81
2022-12-27T06:23:49.485Z,99245.72
2022-12-27T06:26:23.575Z,99250.94
2022-12-27T06:28:51.381Z,99251.84
2022-12-27T06:31:20.148Z,99249.41
2022-12-27T06:33:48.731Z,99246.72
2022-12-27T06:36:20.059Z,99242.50
2022-12-27T06:38:47.480Z,99243.28
2022-12-27T06:41:17.395Z,99245.81
2022-12-27T06:43:45.786Z,99251.84
2022-12-27T06:46:18.163Z,99254.72
2022-12-27T06:48:46.831Z,99253.63
2022-12-27T06:51:15.303Z,99255.47
2022-12-27T06:53:41.857Z,99256.31
2022-12-27T06:56:18.583Z,99264.19
2022-12-27T06:58:47.724Z,99271.78
2022-12-27T07:01:24.445Z,99269.50
2022-12-27T07:03:57.810Z,99275.31
2022-12-27T07:06:27.604Z,99289.81
2022-12-27T07:08:55.304Z,99288.75
2022-12-27T07:11:23.781Z,99284.31
2022-12-27T07:13:54.957Z,99286.13
2022-12-27T07:16:25.040Z,99294.56
2022-12-27T07:18:52.439Z,99297.25
2022-12-27T07:21:24.501Z,99306.00
2022-12-27T07:23:51.527Z,99299.09
2022-12-27T07:26:26.769Z,99303.31
2022-12-27T07:28:56.165Z,99302.38
2022-12-27T07:31:26.539Z,99306.84
2022-12-27T07:33:53.420Z,99308.88
2022-12-27T07:36:29.298Z,99304.53
2022-12-27T07:38:55.999Z,99307.66
2022-12-27T07:41:23.048Z,99306.84
2022-12-27T07:43:49.635Z,99316.28
2022-12-27T07:46:25.480Z,99317.88
2022-12-27T07:48:57.418Z,99322.03
2022-12-27T07:51:26.781Z,99325.41
2022-12-27T07:53:54.499Z,99328.75
2022-12-27T07:56:26.523Z,99329.69
2022-12-27T07:58:57.552Z,99328.16
2022-12-27T08:01:28.068Z,99318.88
2022-12-27T08:03:55.690Z,99325.63
2022-12-27T08:06:29.737Z,99321.19
2022-12-27T08:08:59.586Z,99321.72
2022-12-27T08:11:29.987Z,99325.91
2022-12-27T08:13:56.656Z,99331.06
2022-12-27T08:16:26.397Z,99334.38
2022-12-27T08:18:53.213Z,99331.38
2022-12-27T08:21:19.778Z,99329.47
2022-12-27T08:23:46.371Z,99332.69
2022-12-27T08:26:12.848Z,99331.75
2022-12-27T08:28:39.635Z,99337.72
2022-12-27T08:31:09.216Z,99341.75
2022-12-27T08:33:37.328Z,99335.81
2022-12-27T08:36:36.832Z,99340.84
2022-12-27T08:38:57.251Z,99342.06
2022-12-27T08:41:24.066Z,99341.75
2022-12-27T08:43:50.688Z,99341.97
2022-12-27T08:46:19.254Z,99349.28
2022-12-27T08:48:50.373Z,99341.78
2022-12-27T08:51:28.408Z,99333.13
2022-12-27T08:53:59.592Z,99339.72
2022-12-27T08:56:26.338Z,99342.75
2022-12-27T08:58:52.975Z,99351.16
2022-12-27T09:01:19.905Z,99357.13
2022-12-27T09:03:46.617Z,99357.06
2022-12-27T09:06:18.721Z,99369.38
2022-12-27T09:08:48.284Z,99357.00
2022-12-27T09:11:27.992Z,99368.09
2022-12-27T09:13:55.212Z,99367.00
2022-12-27T09:16:27.482Z,99371.91
2022-12-27T09:18:56.268Z,99376.09
2022-12-27T09:21:26.196Z,99380.09
2022-12-27T09:23:52.873Z,99384.38
2022-12-27T09:26:23.407Z,99382.44
2022-12-27T09:28:51.290Z,99384.88
2022-12-27T09:31:19.937Z,99393.47
2022-12-27T09:33:46.904Z,99384.72
2022-12-27T09:36:20.536Z,99378.28
2022-12-27T09:38:48.575Z,99385.91
2022-12-27T09:44:58.411Z,99391.03
2022-12-27T09:47:56.833Z,99395.25
2022-12-27T09:50:30.772Z,99400.94
2022-12-27T09:53:03.237Z,99397.56
2022-12-27T09:55:41.922Z,99393.13
2022-12-27T09:58:49.373Z,99391.72
2022-12-27T10:01:42.407Z,99391.63
2022-12-27T10:04:13.990Z,99387.63
2022-12-27T10:06:49.305Z,99386.69
2022-12-27T10:09:56.984Z,99390.69
2022-12-27T10:13:01.169Z,99381.78
2022-12-27T10:15:33.362Z,99378.28
2022-12-27T10:18:05.814Z,99382.22
2022-12-27T10:21:17.465Z,99373.59
2022-12-27T10:23:59.487Z,99376.44
2022-12-27T10:26:27.002Z,99364.97
2022-12-27T10:29:11.585Z,99363.09
2022-12-27T10:31:43.041Z,99362.03
2022-12-27T10:34:16.570Z,99366.91
2022-12-27T10:36:45.297Z,99364.16
2022-12-27T10:39:28.537Z,99363.47
2022-12-27T10:42:16.853Z,99353.56
2022-12-27T10:44:43.510Z,99358.56
2022-12-27T10:47:11.195Z,99358.38
2022-12-27T10:49:42.337Z,99364.06
2022-12-27T10:52:24.191Z,99362.34
2022-12-27T10:54:56.143Z,99365.59
2022-12-27T10:57:29.166Z,99353.66
2022-12-27T11:00:16.322Z,99354.63
2022-12-27T11:02:55.973Z,99350.38
2022-12-27T11:05:32.386Z,99351.69
2022-12-27T11:08:01.228Z,99356.63
2022-12-27T11:10:33.216Z,99362.34
2022-12-27T11:13:07.313Z,99360.59
2022-12-27T11:15:38.517Z,99364.66
2022-12-27T11:18:17.083Z,99363.81
2022-12-27T11:20:52.908Z,99366.44
2022-12-27T11:23:23.979Z,99370.81
2022-12-27T11:26:28.316Z,99371.25
2022-12-27T11:29:00.886Z,99370.88
2022-12-27T11:31:34.304Z,99380.13
2022-12-27T11:34:08.632Z,99372.22
2022-12-27T11:36:43.925Z,99369.28
2022-12-27T11:39:37.403Z,99365.97
2022-12-27T11:42:17.797Z,99369.94
2022-12-27T11:45:14.028Z,99369.81
2022-12-27T11:48:29.258Z,99371.53
2022-12-27T11:51:16.375Z,99371.53
2022-12-27T11:54:05.851Z,99373.06
2022-12-27T11:56:43.557Z,99374.47
2022-12-27T11:59:52.886Z,99368.56
2022-12-27T12:03:09.319Z,99370.13
2022-12-27T12:06:02.141Z,99385.84
2022-12-27T12:09:17.959Z,99375.75
2022-12-27T12:12:37.558Z,99371.16
2022-12-27T12:15:48.136Z,99363.00
2022-12-27T12:18:45.530Z,99357.72
2022-12-27T12:21:44.304Z,99348.16
2022-12-27T12:24:47.606Z,99352.84
2022-12-27T12:27:38.406Z,99355.34
2022-12-27T12:30:35.867Z,99347.81
2022-12-27T12:33:36.401Z,99343.84
2022-12-27T12:37:04.418Z,99337.88
2022-12-27T12:40:27.641Z,99334.94
2022-12-27T12:43:23.332Z,99343.34
2022-12-27T12:46:38.819Z,99329.28
2022-12-27T12:49:20.078Z,99336.00
2022-12-27T12:52:18.769Z,99332.09
2022-12-27T12:55:39.213Z,99332.09
2022-12-27T12:58:28.705Z,99329.28
2022-12-27T13:01:14.088Z,99328.06
2022-12-27T13:04:07.088Z,99324.91
2022-12-27T13:07:14.804Z,99322.69
2022-12-27T13:10:28.499Z,99314.81
2022-12-27T13:13:12.252Z,99314.63
2022-12-27T13:16:11.698Z,99314.81
2022-12-27T13:19:13.135Z,99307.72
2022-12-27T13:22:17.047Z,99314.09
2022-12-27T13:25:03.732Z,99315.06
2022-12-27T13:27:58.259Z,99317.88
2022-12-27T13:30:39.219Z,99318.47
2022-12-27T13:33:15.150Z,99314.09
2022-12-27T13:35:47.331Z,99312.41
2022-12-27T13:38:22.643Z,99312.81
2022-12-27T13:41:30.445Z,99309.06
2022-12-27T13:44:22.389Z,99305.28
2022-12-27T13:47:36.761Z,99303.41
2022-12-27T13:50:50.882Z,99301.31
2022-12-27T13:53:51.641Z,99297.09
2022-12-27T13:56:53.914Z,99289.66
2022-12-27T13:59:55.249Z,99291.94
2022-12-27T14:02:37.432Z,99292.16
2022-12-27T14:05:41.292Z,99284.63
2022-12-27T14:08:10.562Z,99279.84
2022-12-27T14:10:44.207Z,99274.25
2022-12-27T14:13:12.810Z,99274.06
2022-12-27T14:16:33.431Z,99264.13
2022-12-27T14:19:30.035Z,99269.47
2022-12-27T14:22:35.797Z,99259.25
2022-12-27T14:25:34.424Z,99256.97
2022-12-27T14:28:59.901Z,99258.81
2022-12-27T14:32:27.371Z,99263.25
2022-12-27T14:35:36.910Z,99268.25
2022-12-27T14:38:33.885Z,99266.59
2022-12-27T14:41:47.209Z,99269.63
2022-12-27T14:44:52.355Z,99275.84
2022-12-27T14:48:17.935Z,99273.84
2022-12-27T14:51:59.809Z,99278.13
2022-12-27T14:55:00.567Z,99282.44
2022-12-27T14:58:04.886Z,99278.66
2022-12-27T15:01:00.010Z,99278.72
2022-12-27T15:03:54.439Z,99277.34
2022-12-27T15:06:58.517Z,99271.59
2022-12-27T15:09:43.262Z,99274.28
2022-12-27T15:12:57.346Z,99271.16
2022-12-27T15:15:43.898Z,99274.78
2022-12-27T15:18:38.099Z,99266.84
2022-12-27T15:21:37.068Z,99274.03
2022-12-27T15:24:50.440Z,99270.44
2022-12-27T15:27:31.112Z,99272.06
2022-12-27T15:30:05.463Z,99273.00
2022-12-27T15:32:53.210Z,99275.91
2022-12-27T15:35:35.678Z,99269.56
2022-12-27T15:38:26.710Z,99275.78
2022-12-27T15:41:08.571Z,99273.41
2022-12-27T15:43:52.331Z,99273.53
2022-12-27T15:46:49.928Z,99273.53
2022-12-27T15:49:41.155Z,99269.88
2022-12-27T15:52:22.611Z,99266.41
2022-12-27T15:55:34.276Z,99273.25
2022-12-27T15:58:18.275Z,99272.22
2022-12-27T16:01:06.339Z,99280.59
2022-12-27T16:03:38.193Z,99268.31
2022-12-27T16:06:07.687Z,99265.69
2022-12-27T16:08:40.236Z,99264.09
2022-12-27T16:11:13.758Z,99259.34
2022-12-27T16:13:45.426Z,99249.72
2022-12-27T16:16:38.717Z,99251.00
2022-12-27T16:19:55.432Z,99251.47
2022-12-27T16:22:34.095Z,99243.88
2022-12-27T16:25:28.650Z,99237.06
2022-12-27T16:28:13.418Z,99235.34
2022-12-27T16:30:47.628Z,99240.34
2022-12-27T16:33:26.044Z,99255.56
2022-12-27T16:36:13.886Z,99253.97
2022-12-27T16:39:14.344Z,99251.44
2022-12-27T16:41:49.956Z,99257.09
2022-12-27T16:44:25.523Z,99263.84
2022-12-27T16:47:31.430Z,99264.75
2022-12-27T16:50:25.305Z,99263.91
2022-12-27T16:53:19.609Z,99265.81
2022-12-27T16:56:20.244Z,99264.84
2022-12-27T16:58:46.952Z,99266.31
2022-12-27T17:01:25.937Z,99268.13
2022-12-27T17:03:54.935Z,99274.13
2022-12-27T17:06:32.043Z,99275.09
2022-12-27T17:09:08.346Z,99270.91
2022-12-27T17:11:41.284Z,99269.66
2022-12-27T17:14:25.789Z,99268.88
2022-12-27T17:16:58.707Z,99272.50
2022-12-27T17:19:44.126Z,99269.78
2022-12-27T17:22:16.787Z,99271.59
2022-12-27T17:24:46.185Z,99260.47
2022-12-27T17:27:59.750Z,99262.31
2022-12-27T17:31:22.582Z,99250.59
2022-12-27T17:34:19.838Z,99250.66
2022-12-27T17:37:16.720Z,99250.00
2022-12-27T17:39:57.461Z,99252.41
2022-12-27T17:43:11.936Z,99255.78
2022-12-27T17:46:23.882Z,99250.25
2022-12-27T17:48:55.903Z,99250.94
2022-12-27T17:51:28.727Z,99255.59
2022-12-27T17:54:15.390Z,99253.06
2022-12-27T17:57:17.356Z,99247.47
2022-12-27T17:59:51.817Z,99243.94
2022-12-27T18:02:38.443Z,99243.03
2022-12-27T18:05:13.339Z,99243.03
2022-12-27T18:07:43.629Z,99250.06
2022-12-27T18:10:13.128Z,99249.06
2022-12-27T18:12:43.200Z,99248.09
2022-12-27T18:15:20.561Z,99237.81
2022-12-27T18:17:55.388Z,99238.38
2022-12-27T18:20:27.900Z,99238.88
2022-12-27T18:23:00.381Z,99234.78
2022-12-27T18:25:34.070Z,99237.66
2022-12-27T18:28:33.387Z,99239.22
2022-12-27T18:31:25.404Z,99229.78
2022-12-27T18:34:24.233Z,99229.13
2022-12-27T18:37:03.472Z,99233.56
2022-12-27T18:39:40.078Z,99237.75
2022-12-27T18:42:35.366Z,99236.97
2022-12-27T18:45:44.704Z,99228.75
2022-12-27T18:48:14.572Z,99218.94
2022-12-27T18:50:52.033Z,99212.19
2022-12-27T18:53:29.671Z,99202.13
2022-12-27T18:56:01.683Z,99203.75
2022-12-27T18:58:28.561Z,99205.41
2022-12-27T19:01:41.939Z,99201.19
2022-12-27T19:04:14.401Z,99195.88
2022-12-27T19:06:50.785Z,99190.50
2022-12-27T19:09:20.611Z,99177.72
2022-12-27T19:12:04.976Z,99164.34
2022-12-27T19:14:42.785Z,99170.44
2022-12-27T19:17:25.038Z,99176.69
2022-12-27T19:19:57.198Z,99168.91
2022-12-27T19:22:42.338Z,99164.84
2022-12-27T19:25:38.093Z,99159.66
2022-12-27T19:28:10.252Z,99160.44
2022-12-27T19:30:44.198Z,99153.50
2022-12-27T19:33:25.604Z,99160.69
2022-12-27T19:35:53.971Z,99167.31
2022-12-27T19:38:28.468Z,99157.13
2022-12-27T19:41:03.666Z,99158.28
2022-12-27T19:43:38.089Z,99154.00
2022-12-27T19:46:05.077Z,99146.19
2022-12-27T19:48:31.971Z,99151.41
2022-12-27T19:50:59.705Z,99152.84
2022-12-27T19:53:34.515Z,99153.63
2022-12-27T19:56:02.865Z,99138.78
2022-12-27T19:58:32.569Z,99131.56
2022-12-27T20:00:59.603Z,99130.88
2022-12-27T20:03:26.555Z,99124.69
2022-12-27T20:06:14.079Z,99118.69
2022-12-27T20:08:49.581Z,99116.94
2022-12-27T20:11:22.520Z,99123.03
2022-12-27T20:13:50.024Z,99122.06
2022-12-27T20:16:19.792Z,99111.69
2022-12-27T20:18:47.096Z,99108.22
2022-12-27T20:21:17.517Z,99100.50
2022-12-27T20:23:45.229Z,99106.38
2022-12-27T20:26:16.391Z,99104.84
2022-12-27T20:28:43.151Z,99111.88
2022-12-27T20:31:14.158Z,99109.28
2022-12-27T20:33:40.989Z,99103.25
2022-12-27T20:36:09.041Z,99106.75
2022-12-27T20:38:39.077Z,99104.09
2022-12-27T20:41:08.760Z,99104.88
2022-12-27T20:43:36.362Z,99108.38
2022-12-27T20:46:13.265Z,99106.47
2022-12-27T20:48:43.257Z,99109.66
2022-12-27T20:51:14.359Z,99104.16
2022-12-27T20:53:40.938Z,99104.63
2022-12-27T20:56:09.043Z,99100.00
2022-12-27T20:58:35.882Z,99099.72
2022-12-27T21:01:25.958Z,99093.50
2022-12-27T21:03:55.980Z,99093.50
2022-12-27T21:06:28.037Z,99088.28
2022-12-27T21:08:57.528Z,99088.34
2022-12-27T21:11:31.897Z,99092.56
2022-12-27T21:14:00.913Z,99091.03
2022-12-27T21:16:31.420Z,99078.03
2022-12-27T21:19:02.734Z,99072.84
2022-12-27T21:21:29.647Z,99062.63
2022-12-27T21:23:59.268Z,99064.41
2022-12-27T21:26:30.218Z,99067.84
2022-12-27T21:29:00.640Z,99060.56
2022-12-27T21:31:27.979Z,99052.34
2022-12-27T21:33:54.569Z,99048.03
2022-12-27T21:36:26.808Z,99044.59
2022-12-27T21:38:55.160Z,99043.56
2022-12-27T21:41:26.272Z,99041.00
2022-12-27T21:43:53.339Z,99039.28
2022-12-27T21:46:23.784Z,99039.47
2022-12-27T21:48:59.422Z,99029.22
2022-12-27T21:51:27.994Z,99016.00
2022-12-27T21:53:55.295Z,99020.41
2022-12-27T21:56:22.966Z,99014.44
2022-12-27T21:58:50.463Z,99015.34
2022-12-27T22:01:21.083Z,99014.41
2022-12-27T22:03:51.529Z,99015.25
2022-12-27T22:06:24.552Z,99017.75
2022-12-27T22:08:54.805Z,99025.47
2022-12-27T22:11:23.460Z,99023.66
2022-12-27T22:13:50.553Z,99019.44
2022-12-27T22:16:30.136Z,99012.75
2022-12-27T22:18:57.019Z,99002.22
2022-12-27T22:21:33.331Z,99003.22
2022-12-27T22:24:02.463Z,98999.63
2022-12-27T22:26:34.378Z,98991.94
2022-12-27T22:29:02.292Z,98989.19
2022-12-27T22:31:35.223Z,98979.88
2022-12-27T22:34:03.444Z,98985.97
2022-12-27T22:36:30.633Z,98984.31
2022-12-27T22:38:59.320Z,98980.44
2022-12-27T22:41:32.473Z,98976.75
2022-12-27T22:44:10.228Z,98971.66
2022-12-27T22:47:15.320Z,98963.91
2022-12-27T22:49:23.533Z,98964.56
2022-12-27T22:51:50.054Z,98960.97
2022-12-27T22:54:16.787Z,98962.63
2022-12-27T22:56:44.050Z,98964.13
2022-12-27T22:59:13.998Z,98960.28
2022-12-27T23:01:43.598Z,98955.19
2022-12-27T23:04:13.449Z,98944.59
2022-12-27T23:06:41.153Z,98949.91
2022-12-27T23:09:08.577Z,98954.59
2022-12-27T23:11:40.791Z,98944.41
2022-12-27T23:14:13.525Z,98935.78
2022-12-27T23:16:49.432Z,98927.91
2022-12-27T23:19:20.031Z,98925.59
2022-12-27T23:21:47.871Z,98918.50
2022-12-27T23:24:14.808Z,98909.84
2022-12-27T23:26:42.132Z,98908.81
2022-12-27T23:29:10.953Z,98910.59
2022-12-27T23:31:55.375Z,98902.56
2022-12-27T23:34:27.646Z,98900.47
2022-12-27T23:36:55.160Z,98895.75
2022-12-27T23:39:21.681Z,98891.97
2022-12-27T23:41:48.129Z,98885.84
2022-12-27T23:44:14.599Z,98880.06
2022-12-27T23:46:41.218Z,98872.88
2022-12-27T23:49:08.234Z,98869.38
2022-12-27T23:51:34.741Z,98862.47
2022-12-27T23:54:01.232Z,98848.69
2022-12-27T23:56:33.707Z,98838.56
2022-12-27T23:59:02.177Z,98833.72
